Time;durP1;ratioP1;P1;durP2;ratioP2;P2;SDS_P1;SDS_P2;PMS_P1;PMS_P2;Temp;Humidity;BMP_temperature;BMP_pressure;BME280_temperature;BME280_humidity;BME280_pressure;Samples;Min_cycle;Max_cycle;Signal;HPM_P1;HPM_P2
2023/11/22 00:00:03;;;;;;;13.53;9.80;;;;;;;;;;685712;28;2634;-69
2023/11/22 00:00:28;;;;;;;14.15;10.00;;;;;;;;;;686779;28;1235;-70
2023/11/22 00:00:49;;;;;;;14.03;9.73;;;;;;;;;;682142;28;4376;-70
2023/11/22 00:01:10;;;;;;;12.60;9.27;;;;;;;;;;685953;28;1213;-69
2023/11/22 00:01:31;;;;;;;13.40;9.63;;;;;;;;;;687508;28;1216;-70
2023/11/22 00:01:51;;;;;;;13.43;9.30;;;;;;;;;;686775;28;1770;-71
2023/11/22 00:02:11;;;;;;;13.03;9.57;;;;;;;;;;690244;28;1303;-70
2023/11/22 00:02:31;;;;;;;13.47;9.60;;;;;;;;;;690394;28;1276;-70
2023/11/22 00:02:52;;;;;;;13.97;10.20;;;;;;;;;;689187;28;2871;-70
2023/11/22 00:03:12;;;;;;;16.67;11.70;;;;;;;;;;689236;28;1216;-70
2023/11/22 00:03:32;;;;;;;18.77;13.23;;;;;;;;;;690172;28;1252;-70
2023/11/22 00:03:53;;;;;;;16.48;11.93;;;;;;;;;;687695;28;4394;-69
2023/11/22 00:04:13;;;;;;;17.70;11.50;;;;;;;;;;688974;28;1274;-70
2023/11/22 00:04:33;;;;;;;18.20;11.60;;;;;;;;;;690476;28;1187;-70
2023/11/22 00:04:54;;;;;;;15.93;10.07;;;;;;;;;;689347;28;1224;-70
2023/11/22 00:05:14;;;;;;;14.20;10.07;;;;;;;;;;687999;28;1515;-70
2023/11/22 00:05:35;;;;;;;15.30;10.73;;;;;;;;;;687704;28;1193;-69
2023/11/22 00:05:56;;;;;;;15.07;10.55;;;;;;;;;;684813;28;2716;-70
2023/11/22 00:06:20;;;;;;;16.15;11.10;;;;;;;;;;685937;28;1243;-69
2023/11/22 00:06:41;;;;;;;15.40;10.40;;;;;;;;;;683910;28;4322;-70
2023/11/22 00:07:02;;;;;;;15.13;9.80;;;;;;;;;;685108;28;1925;-69
2023/11/22 00:07:23;;;;;;;14.70;9.80;;;;;;;;;;686832;28;1394;-69
2023/11/22 00:07:44;;;;;;;15.18;10.05;;;;;;;;;;685771;28;1368;-70
2023/11/22 00:08:06;;;;;;;15.27;9.73;;;;;;;;;;686211;28;1733;-69
2023/11/22 00:08:29;;;;;;;15.95;10.63;;;;;;;;;;685039;28;1346;-70
2023/11/22 00:08:49;;;;;;;15.70;10.95;;;;;;;;;;686293;28;1052;-70
2023/11/22 00:09:10;;;;;;;15.45;11.00;;;;;;;;;;687513;28;1184;-69
2023/11/22 00:09:31;;;;;;;15.57;10.80;;;;;;;;;;688144;28;1220;-69
2023/11/22 00:09:52;;;;;;;14.38;10.32;;;;;;;;;;687641;28;4414;-69
2023/11/22 00:10:13;;;;;;;14.13;10.02;;;;;;;;;;689625;28;1238;-69
2023/11/22 00:10:34;;;;;;;13.00;9.80;;;;;;;;;;689997;28;1286;-69
2023/11/22 00:10:54;;;;;;;13.20;9.97;;;;;;;;;;689503;28;1697;-70
2023/11/22 00:11:15;;;;;;;14.48;10.05;;;;;;;;;;690806;28;828;-69
2023/11/22 00:11:35;;;;;;;14.63;9.73;;;;;;;;;;689794;28;1168;-70
2023/11/22 00:11:55;;;;;;;14.67;9.90;;;;;;;;;;689633;28;2276;-70
2023/11/22 00:12:17;;;;;;;15.25;10.05;;;;;;;;;;689734;28;1431;-70
2023/11/22 00:12:38;;;;;;;13.20;9.43;;;;;;;;;;689943;28;1267;-69
2023/11/22 00:12:58;;;;;;;14.25;9.23;;;;;;;;;;688601;28;4345;-69
2023/11/22 00:13:19;;;;;;;15.03;9.70;;;;;;;;;;690401;28;1247;-69
2023/11/22 00:13:39;;;;;;;15.33;10.07;;;;;;;;;;689951;28;1950;-69
2023/11/22 00:13:59;;;;;;;14.27;9.65;;;;;;;;;;689234;28;1707;-69
2023/11/22 00:14:19;;;;;;;13.97;9.70;;;;;;;;;;689784;28;1338;-69
2023/11/22 00:14:40;;;;;;;13.80;9.50;;;;;;;;;;690014;28;1287;-69
2023/11/22 00:15:00;;;;;;;12.80;9.45;;;;;;;;;;689021;28;1759;-69
2023/11/22 00:15:20;;;;;;;13.53;9.80;;;;;;;;;;690248;28;1196;-69
2023/11/22 00:15:41;;;;;;;13.18;9.23;;;;;;;;;;688004;28;4271;-69
2023/11/22 00:16:01;;;;;;;13.10;9.47;;;;;;;;;;688809;28;1240;-70
2023/11/22 00:16:21;;;;;;;14.13;9.70;;;;;;;;;;688952;28;1287;-69
2023/11/22 00:16:42;;;;;;;14.30;9.85;;;;;;;;;;690272;28;1468;-69
2023/11/22 00:17:03;;;;;;;14.45;10.07;;;;;;;;;;689323;28;2567;-70
2023/11/22 00:17:24;;;;;;;14.43;9.98;;;;;;;;;;689588;28;1215;-69
2023/11/22 00:17:45;;;;;;;14.30;10.02;;;;;;;;;;689704;28;1244;-69
2023/11/22 00:18:05;;;;;;;14.20;9.73;;;;;;;;;;689033;28;1767;-70
2023/11/22 00:18:26;;;;;;;14.82;9.88;;;;;;;;;;689630;28;1203;-69
2023/11/22 00:18:46;;;;;;;13.63;9.17;;;;;;;;;;688584;28;4365;-69
2023/11/22 00:19:07;;;;;;;12.82;9.23;;;;;;;;;;689011;28;2266;-70
2023/11/22 00:19:27;;;;;;;13.07;9.33;;;;;;;;;;689046;28;1401;-69
2023/11/22 00:19:47;;;;;;;14.90;10.18;;;;;;;;;;688351;28;1208;-69
2023/11/22 00:20:08;;;;;;;13.97;9.57;;;;;;;;;;687766;28;3560;-70
2023/11/22 00:20:28;;;;;;;13.43;9.15;;;;;;;;;;690069;28;1066;-69
2023/11/22 00:20:49;;;;;;;12.07;8.63;;;;;;;;;;689598;28;1390;-70
2023/11/22 00:21:09;;;;;;;13.32;9.10;;;;;;;;;;688965;28;1342;-70
2023/11/22 00:21:30;;;;;;;14.40;9.13;;;;;;;;;;689778;28;1275;-69
2023/11/22 00:21:50;;;;;;;14.68;9.88;;;;;;;;;;687286;28;4491;-71
2023/11/22 00:22:14;;;;;;;14.80;9.85;;;;;;;;;;689589;28;1287;-69
2023/11/22 00:22:35;;;;;;;12.77;9.02;;;;;;;;;;690353;28;1214;-70
2023/11/22 00:22:55;;;;;;;13.50;8.85;;;;;;;;;;682790;28;1285;-70
2023/11/22 00:23:15;;;;;;;14.77;9.40;;;;;;;;;;687304;28;1263;-70
2023/11/22 00:23:36;;;;;;;14.77;9.63;;;;;;;;;;686336;28;1221;-70
2023/11/22 00:23:56;;;;;;;13.53;9.03;;;;;;;;;;685779;28;1741;-70
2023/11/22 00:24:18;;;;;;;13.38;9.20;;;;;;;;;;685910;28;1241;-69
2023/11/22 00:24:39;;;;;;;14.98;9.02;;;;;;;;;;685391;28;4337;-70
2023/11/22 00:25:01;;;;;;;13.55;9.10;;;;;;;;;;689552;28;2334;-70
2023/11/22 00:25:21;;;;;;;13.63;9.23;;;;;;;;;;691078;28;1052;-70
2023/11/22 00:25:41;;;;;;;13.27;9.23;;;;;;;;;;689924;28;1435;-70
2023/11/22 00:26:02;;;;;;;13.30;9.33;;;;;;;;;;689852;28;1799;-69
2023/11/22 00:26:22;;;;;;;13.82;10.10;;;;;;;;;;687505;28;1145;-69
2023/11/22 00:26:49;;;;;;;14.98;10.30;;;;;;;;;;687097;28;927;-70
2023/11/22 00:27:10;;;;;;;13.73;9.33;;;;;;;;;;685955;28;2238;-70
2023/11/22 00:27:31;;;;;;;14.05;9.60;;;;;;;;;;687350;28;1488;-70
2023/11/22 00:27:51;;;;;;;14.70;9.52;;;;;;;;;;685635;28;4373;-70
2023/11/22 00:28:11;;;;;;;13.83;9.93;;;;;;;;;;688282;28;1044;-70
2023/11/22 00:28:32;;;;;;;13.43;9.88;;;;;;;;;;687121;28;1181;-70
2023/11/22 00:28:53;;;;;;;13.07;9.60;;;;;;;;;;686283;28;1707;-70
2023/11/22 00:29:14;;;;;;;13.60;9.68;;;;;;;;;;687634;28;812;-69
2023/11/22 00:29:34;;;;;;;14.13;10.07;;;;;;;;;;687441;28;1123;-70
2023/11/22 00:29:54;;;;;;;15.93;9.87;;;;;;;;;;686377;28;2356;-69
2023/11/22 00:30:14;;;;;;;14.80;9.70;;;;;;;;;;687638;28;884;-69
2023/11/22 00:30:35;;;;;;;13.87;9.80;;;;;;;;;;684851;28;1282;-70
2023/11/22 00:30:55;;;;;;;14.57;9.60;;;;;;;;;;685495;28;4569;-69
2023/11/22 00:31:15;;;;;;;14.55;9.48;;;;;;;;;;687340;28;1254;-69
2023/11/22 00:31:35;;;;;;;14.87;9.63;;;;;;;;;;687247;28;853;-69
2023/11/22 00:31:56;;;;;;;13.10;9.50;;;;;;;;;;686575;28;1284;-69
2023/11/22 00:32:16;;;;;;;14.82;9.63;;;;;;;;;;687531;28;955;-70
2023/11/22 00:32:36;;;;;;;14.73;9.50;;;;;;;;;;686411;28;868;-70
2023/11/22 00:32:57;;;;;;;15.57;9.77;;;;;;;;;;686124;28;2348;-70
2023/11/22 00:33:19;;;;;;;13.97;9.63;;;;;;;;;;690373;28;883;-70
2023/11/22 00:33:40;;;;;;;13.68;9.65;;;;;;;;;;688583;28;4260;-70
2023/11/22 00:34:00;;;;;;;14.50;10.00;;;;;;;;;;686065;28;1767;-69
2023/11/22 00:34:20;;;;;;;14.53;10.03;;;;;;;;;;687677;28;790;-70
2023/11/22 00:34:40;;;;;;;14.10;9.97;;;;;;;;;;689748;28;1196;-69
2023/11/22 00:35:01;;;;;;;13.73;9.57;;;;;;;;;;689048;28;1337;-69
2023/11/22 00:35:23;;;;;;;14.68;9.88;;;;;;;;;;687069;28;1239;-69
2023/11/22 00:35:43;;;;;;;15.80;9.77;;;;;;;;;;684442;28;1466;-69
2023/11/22 00:36:04;;;;;;;15.05;9.93;;;;;;;;;;680968;28;1527;-69
2023/11/22 00:36:24;;;;;;;15.38;9.68;;;;;;;;;;679798;29;881;-69
2023/11/22 00:36:45;;;;;;;15.37;9.60;;;;;;;;;;679184;28;4303;-69
2023/11/22 00:37:05;;;;;;;14.27;9.63;;;;;;;;;;679672;28;2292;-70
2023/11/22 00:37:25;;;;;;;14.45;10.02;;;;;;;;;;681551;28;1175;-70
2023/11/22 00:37:46;;;;;;;15.83;10.13;;;;;;;;;;683631;28;1041;-70
2023/11/22 00:38:06;;;;;;;16.23;10.20;;;;;;;;;;678981;28;1978;-70
2023/11/22 00:38:26;;;;;;;14.80;10.03;;;;;;;;;;680648;29;1142;-70
2023/11/22 00:38:47;;;;;;;14.13;9.63;;;;;;;;;;681718;28;1133;-70
2023/11/22 00:39:09;;;;;;;15.47;10.07;;;;;;;;;;680773;28;3627;-70
2023/11/22 00:39:29;;;;;;;15.88;10.43;;;;;;;;;;683957;28;1163;-69
2023/11/22 00:39:49;;;;;;;14.33;9.93;;;;;;;;;;686050;28;4255;-70
2023/11/22 00:40:10;;;;;;;15.15;9.90;;;;;;;;;;686768;28;1812;-70
2023/11/22 00:40:31;;;;;;;15.03;10.00;;;;;;;;;;687398;28;1380;-70
2023/11/22 00:40:52;;;;;;;14.10;9.88;;;;;;;;;;685705;28;2029;-70
2023/11/22 00:41:15;;;;;;;13.40;9.77;;;;;;;;;;687626;28;889;-69
2023/11/22 00:41:35;;;;;;;15.35;9.73;;;;;;;;;;687500;28;979;-69
2023/11/22 00:41:56;;;;;;;15.67;10.10;;;;;;;;;;683415;28;1583;-69
2023/11/22 00:42:19;;;;;;;15.17;9.90;;;;;;;;;;684529;28;746;-69
2023/11/22 00:42:42;;;;;;;15.52;10.18;;;;;;;;;;686702;28;4316;-69
2023/11/22 00:43:02;;;;;;;13.48;9.75;;;;;;;;;;686371;28;1743;-69
2023/11/22 00:43:25;;;;;;;13.88;9.65;;;;;;;;;;686070;28;1808;-70
2023/11/22 00:43:45;;;;;;;14.77;9.82;;;;;;;;;;680259;28;1240;-70
2023/11/22 00:44:06;;;;;;;14.87;10.10;;;;;;;;;;680947;28;1706;-69
2023/11/22 00:44:26;;;;;;;14.23;10.10;;;;;;;;;;683390;28;1321;-70
2023/11/22 00:44:47;;;;;;;13.87;10.00;;;;;;;;;;684136;28;1300;-69
2023/11/22 00:45:09;;;;;;;14.80;10.13;;;;;;;;;;682316;28;1848;-69
2023/11/22 00:45:30;;;;;;;14.60;9.95;;;;;;;;;;683174;28;1372;-69
2023/11/22 00:45:51;;;;;;;12.98;9.25;;;;;;;;;;687017;28;4281;-70
2023/11/22 00:46:12;;;;;;;13.98;9.43;;;;;;;;;;686026;28;967;-69
2023/11/22 00:46:33;;;;;;;15.00;10.38;;;;;;;;;;686172;28;1343;-69
2023/11/22 00:46:53;;;;;;;15.60;10.77;;;;;;;;;;686126;28;1774;-69
2023/11/22 00:47:16;;;;;;;13.93;9.65;;;;;;;;;;687034;28;963;-69
2023/11/22 00:47:37;;;;;;;14.35;9.68;;;;;;;;;;684302;28;920;-69
2023/11/22 00:47:57;;;;;;;13.80;10.10;;;;;;;;;;683543;28;2307;-70
2023/11/22 00:48:17;;;;;;;14.25;9.98;;;;;;;;;;682142;28;1284;-69
2023/11/22 00:48:37;;;;;;;15.73;10.40;;;;;;;;;;684254;28;932;-69
2023/11/22 00:48:58;;;;;;;14.83;10.57;;;;;;;;;;682676;28;4248;-70
2023/11/22 00:49:18;;;;;;;14.13;9.82;;;;;;;;;;686968;28;912;-69
2023/11/22 00:49:38;;;;;;;14.80;9.93;;;;;;;;;;687105;28;1433;-70
2023/11/22 00:49:59;;;;;;;14.87;10.57;;;;;;;;;;684631;28;1768;-70
2023/11/22 00:50:20;;;;;;;14.50;10.52;;;;;;;;;;686033;28;943;-70
2023/11/22 00:50:41;;;;;;;14.23;10.13;;;;;;;;;;683611;28;1339;-69
2023/11/22 00:51:07;;;;;;;13.90;10.00;;;;;;;;;;684130;28;2326;-69
2023/11/22 00:51:27;;;;;;;15.18;10.13;;;;;;;;;;683877;28;2126;-69
2023/11/22 00:51:48;;;;;;;14.95;10.10;;;;;;;;;;681597;28;4297;-70
2023/11/22 00:52:08;;;;;;;14.17;9.70;;;;;;;;;;683606;28;2720;-69
2023/11/22 00:52:28;;;;;;;14.52;9.27;;;;;;;;;;683998;28;1509;-69
2023/11/22 00:52:49;;;;;;;15.53;9.87;;;;;;;;;;686424;28;892;-69
2023/11/22 00:53:09;;;;;;;14.10;9.82;;;;;;;;;;684974;28;1758;-69
2023/11/22 00:53:30;;;;;;;14.27;9.30;;;;;;;;;;684305;28;1914;-69
2023/11/22 00:53:50;;;;;;;14.20;9.67;;;;;;;;;;684440;28;1168;-70
2023/11/22 00:54:11;;;;;;;15.38;10.07;;;;;;;;;;683783;28;2208;-69
2023/11/22 00:54:31;;;;;;;15.07;9.83;;;;;;;;;;687164;28;900;-69
2023/11/22 00:54:51;;;;;;;13.75;9.30;;;;;;;;;;686765;28;4401;-69
2023/11/22 00:55:12;;;;;;;13.37;9.10;;;;;;;;;;683962;28;2173;-69
2023/11/22 00:55:32;;;;;;;13.73;9.05;;;;;;;;;;687236;28;1059;-69
2023/11/22 00:55:52;;;;;;;13.73;9.17;;;;;;;;;;687143;28;1343;-69
2023/11/22 00:56:13;;;;;;;14.17;9.47;;;;;;;;;;685994;28;2323;-70
2023/11/22 00:56:34;;;;;;;13.82;9.50;;;;;;;;;;684694;28;830;-70
2023/11/22 00:56:55;;;;;;;14.75;9.48;;;;;;;;;;683966;28;2423;-69
2023/11/22 00:57:15;;;;;;;14.60;10.00;;;;;;;;;;687460;28;1185;-70
2023/11/22 00:57:37;;;;;;;13.63;9.20;;;;;;;;;;686869;28;845;-70
2023/11/22 00:58:03;;;;;;;15.45;9.43;;;;;;;;;;685335;28;4253;-69
2023/11/22 00:58:23;;;;;;;13.80;9.05;;;;;;;;;;686999;28;841;-70
2023/11/22 00:58:44;;;;;;;13.18;8.90;;;;;;;;;;687210;28;896;-69
2023/11/22 00:59:04;;;;;;;13.53;9.30;;;;;;;;;;686371;28;1732;-69
2023/11/22 00:59:24;;;;;;;15.43;10.30;;;;;;;;;;687598;28;1357;-70
2023/11/22 00:59:44;;;;;;;17.25;10.98;;;;;;;;;;688309;28;762;-69
2023/11/22 01:00:09;;;;;;;17.55;11.55;;;;;;;;;;686025;28;1604;-69
2023/11/22 01:00:30;;;;;;;17.27;11.00;;;;;;;;;;683548;28;1915;-68
2023/11/22 01:00:50;;;;;;;15.82;10.95;;;;;;;;;;683496;28;4480;-69
2023/11/22 01:01:11;;;;;;;15.17;10.60;;;;;;;;;;683067;28;1996;-69
2023/11/22 01:01:31;;;;;;;15.77;10.63;;;;;;;;;;681662;28;1321;-70
2023/11/22 01:01:52;;;;;;;21.98;14.38;;;;;;;;;;683517;28;845;-70
2023/11/22 01:02:12;;;;;;;37.10;24.73;;;;;;;;;;683551;28;2308;-69
2023/11/22 01:02:33;;;;;;;31.70;21.10;;;;;;;;;;684979;28;892;-70
2023/11/22 01:02:53;;;;;;;18.35;12.88;;;;;;;;;;684933;28;861;-69
2023/11/22 01:03:14;;;;;;;20.90;13.88;;;;;;;;;;687026;28;1459;-70
2023/11/22 01:03:37;;;;;;;20.20;14.63;;;;;;;;;;687693;28;864;-70
2023/11/22 01:03:57;;;;;;;19.25;13.55;;;;;;;;;;685523;28;4294;-69
2023/11/22 01:04:18;;;;;;;21.70;14.20;;;;;;;;;;687501;28;924;-72
2023/11/22 01:04:38;;;;;;;17.93;11.17;;;;;;;;;;689993;28;1307;-69
2023/11/22 01:04:58;;;;;;;16.60;10.53;;;;;;;;;;686129;28;2086;-70
2023/11/22 01:05:18;;;;;;;17.20;11.38;;;;;;;;;;687676;28;872;-70
2023/11/22 01:05:39;;;;;;;16.00;11.27;;;;;;;;;;687455;28;1083;-70
2023/11/22 01:05:59;;;;;;;15.20;10.87;;;;;;;;;;685414;28;2315;-70
2023/11/22 01:06:19;;;;;;;16.88;10.80;;;;;;;;;;687288;28;805;-69
2023/11/22 01:06:40;;;;;;;19.07;11.23;;;;;;;;;;687122;28;4396;-69
2023/11/22 01:07:01;;;;;;;18.83;11.00;;;;;;;;;;688634;28;1837;-70
2023/11/22 01:07:21;;;;;;;16.05;10.48;;;;;;;;;;689312;28;887;-70
2023/11/22 01:07:42;;;;;;;14.80;9.77;;;;;;;;;;690182;28;1120;-70
2023/11/22 01:08:02;;;;;;;15.13;9.90;;;;;;;;;;689047;28;2297;-69
2023/11/22 01:08:22;;;;;;;12.70;9.10;;;;;;;;;;689385;28;1342;-69
2023/11/22 01:08:43;;;;;;;14.52;9.32;;;;;;;;;;689772;28;920;-69
2023/11/22 01:09:03;;;;;;;14.67;9.20;;;;;;;;;;689019;28;2328;-69
2023/11/22 01:09:24;;;;;;;15.10;9.85;;;;;;;;;;684729;28;1425;-69
2023/11/22 01:09:44;;;;;;;13.33;9.90;;;;;;;;;;687128;28;4428;-69
2023/11/22 01:10:05;;;;;;;12.40;9.03;;;;;;;;;;686114;28;1676;-69
2023/11/22 01:10:25;;;;;;;13.70;9.40;;;;;;;;;;689715;28;849;-70
2023/11/22 01:10:46;;;;;;;13.13;9.30;;;;;;;;;;690094;28;1106;-69
2023/11/22 01:11:07;;;;;;;14.00;9.73;;;;;;;;;;689269;28;1718;-70
2023/11/22 01:11:27;;;;;;;14.43;10.02;;;;;;;;;;689300;28;907;-70
2023/11/22 01:11:48;;;;;;;13.53;9.73;;;;;;;;;;687527;28;1114;-69
2023/11/22 01:12:09;;;;;;;14.50;9.65;;;;;;;;;;686357;28;1823;-70
2023/11/22 01:12:29;;;;;;;13.10;8.90;;;;;;;;;;687302;28;912;-69
2023/11/22 01:12:49;;;;;;;13.18;9.05;;;;;;;;;;685955;28;4394;-69
2023/11/22 01:13:10;;;;;;;13.80;9.37;;;;;;;;;;686527;28;1814;-69
2023/11/22 01:13:30;;;;;;;12.85;8.93;;;;;;;;;;687348;28;920;-69
2023/11/22 01:13:50;;;;;;;12.33;9.07;;;;;;;;;;687630;28;892;-68
2023/11/22 01:14:10;;;;;;;11.77;8.73;;;;;;;;;;686122;28;2233;-69
2023/11/22 01:14:31;;;;;;;12.23;8.80;;;;;;;;;;684635;28;1324;-69
2023/11/22 01:14:51;;;;;;;12.38;8.77;;;;;;;;;;687066;28;1323;-69
2023/11/22 01:15:11;;;;;;;12.87;9.10;;;;;;;;;;683356;28;2402;-69
2023/11/22 01:15:32;;;;;;;13.00;8.82;;;;;;;;;;681502;28;826;-69
2023/11/22 01:15:52;;;;;;;11.70;8.30;;;;;;;;;;684245;28;4263;-70
2023/11/22 01:16:13;;;;;;;12.50;8.70;;;;;;;;;;683997;28;1118;-69
2023/11/22 01:16:33;;;;;;;11.98;8.40;;;;;;;;;;686464;28;3482;-69
2023/11/22 01:16:56;;;;;;;12.03;8.67;;;;;;;;;;684269;28;1193;-69
2023/11/22 01:17:17;;;;;;;11.98;8.45;;;;;;;;;;687809;28;822;-69
2023/11/22 01:17:37;;;;;;;12.27;8.40;;;;;;;;;;689909;28;877;-70
2023/11/22 01:17:57;;;;;;;14.03;8.63;;;;;;;;;;686875;28;991;-70
2023/11/22 01:18:18;;;;;;;13.77;8.73;;;;;;;;;;684581;28;1135;-70
2023/11/22 01:18:39;;;;;;;12.88;9.27;;;;;;;;;;684570;28;4292;-70
2023/11/22 01:19:00;;;;;;;12.88;8.80;;;;;;;;;;685933;28;1519;-69
2023/11/22 01:19:21;;;;;;;11.85;8.27;;;;;;;;;;684948;28;1204;-69
2023/11/22 01:19:41;;;;;;;11.48;8.27;;;;;;;;;;682725;28;1165;-71
2023/11/22 01:20:03;;;;;;;13.30;9.10;;;;;;;;;;686289;28;1157;-70
2023/11/22 01:20:23;;;;;;;12.45;8.98;;;;;;;;;;687736;28;833;-70
2023/11/22 01:20:45;;;;;;;12.67;8.83;;;;;;;;;;685034;28;1117;-70
2023/11/22 01:21:05;;;;;;;12.20;8.93;;;;;;;;;;685700;28;2254;-70
2023/11/22 01:21:25;;;;;;;12.60;9.20;;;;;;;;;;688375;28;824;-70
2023/11/22 01:21:46;;;;;;;12.68;9.10;;;;;;;;;;684055;28;4282;-70
2023/11/22 01:22:06;;;;;;;12.63;9.17;;;;;;;;;;685777;28;2148;-69
2023/11/22 01:22:27;;;;;;;12.53;8.73;;;;;;;;;;683620;28;1373;-69
2023/11/22 01:22:47;;;;;;;12.63;8.60;;;;;;;;;;683919;28;2100;-70
2023/11/22 01:23:07;;;;;;;11.50;8.40;;;;;;;;;;683364;28;1306;-69
2023/11/22 01:23:28;;;;;;;11.70;8.43;;;;;;;;;;685194;28;1269;-70
2023/11/22 01:23:48;;;;;;;13.30;8.37;;;;;;;;;;683471;28;1392;-70
2023/11/22 01:24:08;;;;;;;12.40;8.52;;;;;;;;;;682487;28;1502;-69
2023/11/22 01:24:29;;;;;;;12.07;8.37;;;;;;;;;;685545;28;1156;-70
2023/11/22 01:24:49;;;;;;;12.20;8.32;;;;;;;;;;682901;28;4303;-69
2023/11/22 01:25:09;;;;;;;11.43;8.30;;;;;;;;;;677939;29;1679;-70
2023/11/22 01:25:30;;;;;;;11.50;8.57;;;;;;;;;;679671;29;1284;-70
2023/11/22 01:25:50;;;;;;;11.93;8.68;;;;;;;;;;679527;29;1216;-70
2023/11/22 01:26:10;;;;;;;11.80;8.30;;;;;;;;;;680738;28;1716;-70
2023/11/22 01:26:30;;;;;;;12.30;8.63;;;;;;;;;;682071;28;853;-69
2023/11/22 01:26:51;;;;;;;11.27;8.02;;;;;;;;;;683314;28;955;-70
2023/11/22 01:27:11;;;;;;;11.83;8.20;;;;;;;;;;685627;28;1450;-70
2023/11/22 01:27:31;;;;;;;12.43;8.47;;;;;;;;;;687225;28;1331;-70
2023/11/22 01:27:52;;;;;;;12.55;8.18;;;;;;;;;;685314;28;4467;-70
2023/11/22 01:28:12;;;;;;;11.77;8.27;;;;;;;;;;685957;28;1521;-69
2023/11/22 01:28:34;;;;;;;12.20;8.40;;;;;;;;;;687242;28;1308;-70
2023/11/22 01:28:54;;;;;;;12.48;8.60;;;;;;;;;;687583;28;826;-69
2023/11/22 01:29:16;;;;;;;12.05;8.38;;;;;;;;;;687376;28;1099;-70
2023/11/22 01:29:36;;;;;;;12.33;8.23;;;;;;;;;;686537;28;1208;-71
2023/11/22 01:29:56;;;;;;;12.32;8.45;;;;;;;;;;684718;28;2397;-70
2023/11/22 01:30:18;;;;;;;13.40;8.90;;;;;;;;;;687766;28;884;-70
2023/11/22 01:30:38;;;;;;;12.68;8.35;;;;;;;;;;689752;28;4487;-70
2023/11/22 01:30:59;;;;;;;12.27;8.57;;;;;;;;;;688761;28;1699;-70
2023/11/22 01:31:23;;;;;;;12.20;8.75;;;;;;;;;;689449;28;991;-70
2023/11/22 01:31:43;;;;;;;12.20;8.45;;;;;;;;;;690139;28;2101;-70
2023/11/22 01:32:04;;;;;;;11.63;8.30;;;;;;;;;;688876;28;1686;-70
2023/11/22 01:32:25;;;;;;;10.98;8.08;;;;;;;;;;688832;28;2018;-69
2023/11/22 01:32:45;;;;;;;13.00;8.50;;;;;;;;;;690221;28;1330;-70
2023/11/22 01:33:05;;;;;;;12.60;8.37;;;;;;;;;;686775;28;1458;-70
2023/11/22 01:33:27;;;;;;;11.40;8.30;;;;;;;;;;687268;28;1397;-70
2023/11/22 01:33:47;;;;;;;12.00;8.23;;;;;;;;;;687286;28;4256;-70
2023/11/22 01:34:08;;;;;;;12.38;8.43;;;;;;;;;;684675;28;1729;-70
2023/11/22 01:34:29;;;;;;;12.10;8.50;;;;;;;;;;687785;28;987;-69
2023/11/22 01:34:49;;;;;;;11.48;8.48;;;;;;;;;;685309;28;1630;-70
2023/11/22 01:35:09;;;;;;;13.27;8.77;;;;;;;;;;685944;28;3375;-70
2023/11/22 01:35:30;;;;;;;12.13;8.40;;;;;;;;;;687086;28;909;-70
2023/11/22 01:35:50;;;;;;;13.73;8.80;;;;;;;;;;687836;28;1096;-72
2023/11/22 01:36:11;;;;;;;12.70;8.53;;;;;;;;;;686909;28;2420;-70
2023/11/22 01:36:31;;;;;;;13.67;8.30;;;;;;;;;;687520;28;818;-71
2023/11/22 01:36:51;;;;;;;12.17;8.13;;;;;;;;;;687398;28;4324;-69
2023/11/22 01:37:12;;;;;;;11.53;7.93;;;;;;;;;;686885;28;1549;-70
2023/11/22 01:37:32;;;;;;;11.60;8.27;;;;;;;;;;690447;28;928;-70
2023/11/22 01:37:52;;;;;;;13.77;8.47;;;;;;;;;;689992;28;1156;-69
2023/11/22 01:38:13;;;;;;;13.27;8.80;;;;;;;;;;684306;28;2533;-69
2023/11/22 01:38:33;;;;;;;12.60;8.60;;;;;;;;;;687742;28;956;-70
2023/11/22 01:38:53;;;;;;;12.23;8.60;;;;;;;;;;688422;28;5881;-70
2023/11/22 01:39:14;;;;;;;12.18;8.73;;;;;;;;;;684901;28;2556;-70
2023/11/22 01:39:34;;;;;;;12.73;8.60;;;;;;;;;;686854;28;917;-70
2023/11/22 01:39:55;;;;;;;12.95;8.85;;;;;;;;;;686106;28;4287;-70
2023/11/22 01:40:15;;;;;;;13.07;9.00;;;;;;;;;;684378;28;1764;-70
2023/11/22 01:40:42;;;;;;;13.13;8.57;;;;;;;;;;685098;28;754;-69
2023/11/22 01:41:03;;;;;;;13.30;8.45;;;;;;;;;;684949;28;2548;-69
2023/11/22 01:41:24;;;;;;;12.95;8.95;;;;;;;;;;685740;28;1244;-69
2023/11/22 01:41:44;;;;;;;13.30;8.38;;;;;;;;;;684946;28;1142;-70
2023/11/22 01:42:06;;;;;;;13.63;8.50;;;;;;;;;;683633;28;2288;-70
2023/11/22 01:42:26;;;;;;;10.65;8.23;;;;;;;;;;685327;28;1212;-69
2023/11/22 01:42:47;;;;;;;11.07;8.30;;;;;;;;;;685036;28;4345;-70
2023/11/22 01:43:09;;;;;;;12.10;8.93;;;;;;;;;;686091;28;1917;-69
2023/11/22 01:43:31;;;;;;;13.00;8.90;;;;;;;;;;687006;28;1533;-70
2023/11/22 01:43:51;;;;;;;12.68;8.20;;;;;;;;;;687072;28;975;-70
2023/11/22 01:44:12;;;;;;;11.23;8.10;;;;;;;;;;686240;28;1754;-70
2023/11/22 01:44:32;;;;;;;12.10;8.27;;;;;;;;;;687544;28;865;-70
2023/11/22 01:44:52;;;;;;;13.03;8.40;;;;;;;;;;688237;28;1298;-70
2023/11/22 01:45:13;;;;;;;12.40;8.60;;;;;;;;;;689688;28;1161;-70
2023/11/22 01:45:34;;;;;;;12.20;9.00;;;;;;;;;;690900;28;940;-70
2023/11/22 01:45:55;;;;;;;12.27;8.77;;;;;;;;;;689815;28;4315;-70
2023/11/22 01:46:25;;;;;;;12.95;8.57;;;;;;;;;;688849;28;1772;-69
2023/11/22 01:46:45;;;;;;;13.40;9.02;;;;;;;;;;690316;28;853;-70
2023/11/22 01:47:06;;;;;;;12.70;9.10;;;;;;;;;;689513;28;1534;-70
2023/11/22 01:47:27;;;;;;;12.90;9.07;;;;;;;;;;690134;28;1426;-70
2023/11/22 01:47:47;;;;;;;12.47;8.63;;;;;;;;;;688409;28;1124;-70
2023/11/22 01:48:10;;;;;;;12.02;8.32;;;;;;;;;;686294;28;1863;-70
2023/11/22 01:48:32;;;;;;;11.57;8.45;;;;;;;;;;687792;28;1063;-70
2023/11/22 01:48:52;;;;;;;13.23;8.57;;;;;;;;;;687358;28;4252;-70
2023/11/22 01:49:12;;;;;;;13.17;8.93;;;;;;;;;;684893;28;1494;-69
2023/11/22 01:49:33;;;;;;;12.38;8.85;;;;;;;;;;688872;28;804;-69
2023/11/22 01:49:54;;;;;;;13.32;8.90;;;;;;;;;;690887;28;777;-70
2023/11/22 01:50:14;;;;;;;12.43;8.77;;;;;;;;;;687887;28;1616;-70
2023/11/22 01:50:35;;;;;;;11.60;8.17;;;;;;;;;;687031;28;868;-70
2023/11/22 01:50:56;;;;;;;11.82;8.90;;;;;;;;;;684515;28;1452;-70
2023/11/22 01:51:17;;;;;;;14.13;9.00;;;;;;;;;;685982;28;2682;-69
2023/11/22 01:51:37;;;;;;;13.10;8.73;;;;;;;;;;684534;28;955;-70
2023/11/22 01:51:58;;;;;;;12.37;8.47;;;;;;;;;;682811;28;4258;-70
2023/11/22 01:52:18;;;;;;;12.40;8.80;;;;;;;;;;683180;28;1233;-70
2023/11/22 01:52:39;;;;;;;12.02;8.80;;;;;;;;;;684401;28;1162;-70
2023/11/22 01:52:59;;;;;;;12.00;8.65;;;;;;;;;;684874;28;1355;-70
2023/11/22 01:53:21;;;;;;;11.03;8.50;;;;;;;;;;685877;28;853;-70
2023/11/22 01:53:42;;;;;;;11.65;8.43;;;;;;;;;;685287;28;1981;-70
2023/11/22 01:54:02;;;;;;;12.00;8.50;;;;;;;;;;685082;28;1831;-70
2023/11/22 01:54:23;;;;;;;11.97;8.43;;;;;;;;;;686696;28;900;-70
2023/11/22 01:54:44;;;;;;;12.82;8.80;;;;;;;;;;686861;28;4272;-69
2023/11/22 01:55:04;;;;;;;13.60;9.20;;;;;;;;;;683466;28;2563;-70
2023/11/22 01:55:25;;;;;;;12.43;8.77;;;;;;;;;;683065;28;909;-71
2023/11/22 01:55:46;;;;;;;12.52;8.90;;;;;;;;;;687551;28;944;-69
2023/11/22 01:56:07;;;;;;;11.45;8.35;;;;;;;;;;686405;28;1892;-69
2023/11/22 01:56:28;;;;;;;12.90;8.37;;;;;;;;;;683885;28;1559;-69
2023/11/22 01:56:48;;;;;;;13.55;8.70;;;;;;;;;;681624;28;1218;-69
2023/11/22 01:57:09;;;;;;;11.70;8.50;;;;;;;;;;682401;28;2382;-69
2023/11/22 01:57:29;;;;;;;11.73;8.53;;;;;;;;;;681657;29;1279;-70
2023/11/22 01:57:49;;;;;;;16.17;9.63;;;;;;;;;;681451;29;4499;-69
2023/11/22 01:58:10;;;;;;;14.98;9.02;;;;;;;;;;684294;28;1925;-69
2023/11/22 01:58:30;;;;;;;12.20;8.37;;;;;;;;;;680718;29;1178;-69
2023/11/22 01:58:51;;;;;;;11.80;8.60;;;;;;;;;;681393;29;1268;-69
2023/11/22 01:59:12;;;;;;;12.10;8.50;;;;;;;;;;680313;28;1826;-69
2023/11/22 01:59:32;;;;;;;12.68;8.35;;;;;;;;;;682646;28;1248;-70
2023/11/22 01:59:53;;;;;;;13.67;9.13;;;;;;;;;;681162;28;1376;-70
2023/11/22 02:00:14;;;;;;;11.25;8.88;;;;;;;;;;679423;28;1814;-70
2023/11/22 02:00:37;;;;;;;11.60;9.00;;;;;;;;;;678326;29;1566;-69
2023/11/22 02:00:59;;;;;;;12.82;8.75;;;;;;;;;;681482;28;4269;-70
2023/11/22 02:01:19;;;;;;;13.35;9.00;;;;;;;;;;680935;28;2105;-69
2023/11/22 02:01:40;;;;;;;14.50;9.50;;;;;;;;;;682564;29;1324;-69
2023/11/22 02:02:01;;;;;;;12.65;9.02;;;;;;;;;;678686;29;1899;-70
2023/11/22 02:02:22;;;;;;;12.20;9.18;;;;;;;;;;681564;29;1517;-70
2023/11/22 02:02:42;;;;;;;12.10;8.80;;;;;;;;;;684619;28;1472;-69
2023/11/22 02:03:03;;;;;;;12.03;8.77;;;;;;;;;;681048;28;1297;-70
2023/11/22 02:03:24;;;;;;;12.57;8.98;;;;;;;;;;683072;28;1578;-69
2023/11/22 02:03:45;;;;;;;12.53;9.03;;;;;;;;;;683089;28;4358;-69
2023/11/22 02:04:07;;;;;;;12.13;8.88;;;;;;;;;;684493;28;1172;-69
2023/11/22 02:04:27;;;;;;;12.60;8.57;;;;;;;;;;684810;28;1283;-70
2023/11/22 02:04:47;;;;;;;12.70;9.05;;;;;;;;;;687876;28;1358;-69
2023/11/22 02:05:08;;;;;;;13.30;9.10;;;;;;;;;;688829;28;2213;-69
2023/11/22 02:05:28;;;;;;;12.30;8.52;;;;;;;;;;689057;28;1198;-69
2023/11/22 02:05:50;;;;;;;13.80;8.97;;;;;;;;;;690546;28;1005;-69
2023/11/22 02:06:10;;;;;;;13.25;9.23;;;;;;;;;;689238;28;1684;-70